Achilles Bulker — HPOA — position and weather

sailwx.info

Track history (hours):
 
Tides and Currents Weather Stations Pressure Air Temp Water Temp Dewpoint Dewpoint Depression Visibility Wind Speed Wind Dir Waves Ship Positions

Achilles Bulker

Last reported at 2018-Jun-12 14:02 UTC. Time now 2018-Jun-23 17:28 UTC.
Position N 16°07' E 108°27'.
Warning: this ship's position is 11 days out of date.

Length 177 m; draft 7.3 m.

Type: Cargo ship. MMSI: 355170000.

Date/timePositionNaut miles runAvg speedWind from/ knotsBaromVisibWave heightAir tempDewpointWater temp
2018-Jun-12 14:02N 16°07' E 108°27'113.2
2018-Jun-12 13:56N 16°08' E 108°26'1211.4
2018-Jun-12 12:52N 16°10' E 108°13'3 7.4
2018-Jun-12 12:29N 16°08' E 108°12'1 2.2
2018-Jun-12 12:00N 16°07' E 108°13'0 0.0
2018-Jun-12 11:29N 16°07' E 108°13'0 0.0
2018-Jun-12 10:47N 16°07' E 108°13'0 0.0
2018-Jun-12 10:29N 16°07' E 108°13'0 0.0
2018-Jun-12 09:53N 16°07' E 108°13'0 0.0
2018-Jun-12 09:29N 16°07' E 108°13'0 0.0
2018-Jun-12 08:53N 16°07' E 108°13'0 0.0
2018-Jun-12 08:29N 16°07' E 108°13'0 0.0
2018-Jun-12 07:59N 16°07' E 108°13'0 0.0
2018-Jun-12 07:17N 16°07' E 108°13'0 0.0
2018-Jun-12 06:47N 16°07' E 108°13'0 0.0
2018-Jun-12 05:59N 16°07' E 108°13'0 0.0
2018-Jun-12 05:23N 16°07' E 108°13'0 0.0
2018-Jun-12 04:59N 16°07' E 108°13'0 0.0
2018-Jun-12 04:29N 16°07' E 108°13'0 0.0
2018-Jun-12 03:59N 16°07' E 108°13'0 0.0
2018-Jun-12 03:29N 16°07' E 108°13'0 0.0
2018-Jun-12 02:59N 16°07' E 108°13'0 0.0
2018-Jun-12 02:29N 16°07' E 108°13'0 0.0
2018-Jun-12 01:59N 16°07' E 108°13'0 0.0
2018-Jun-12 01:29N 16°07' E 108°13'0 0.0
2018-Jun-12 00:59N 16°07' E 108°13'0 0.0
2018-Jun-12 00:11N 16°07' E 108°13'0 0.0
2018-Jun-11 23:59N 16°07' E 108°13'0 0.0
2018-Jun-11 23:29N 16°07' E 108°13'0 0.0
2018-Jun-11 22:53N 16°07' E 108°13'0 0.0
2018-Jun-11 22:29N 16°07' E 108°13'0 0.0
2018-Jun-11 21:59N 16°07' E 108°13'0 0.0
2018-Jun-11 21:29N 16°07' E 108°13'0 0.0
2018-Jun-11 20:53N 16°07' E 108°13'0 0.0
2018-Jun-11 20:29N 16°07' E 108°13'0 0.0
2018-Jun-11 19:59N 16°07' E 108°13'0 0.0
2018-Jun-11 19:29N 16°07' E 108°13'0 0.0
2018-Jun-11 18:59N 16°07' E 108°13'0 0.0
2018-Jun-11 18:29N 16°07' E 108°13'0 0.0
2018-Jun-11 17:59N 16°07' E 108°13'0 0.0
2018-Jun-11 17:29N 16°07' E 108°13'0 0.0
2018-Jun-11 16:59N 16°07' E 108°13'0 0.0
2018-Jun-11 16:29N 16°07' E 108°13'0 0.0
2018-Jun-11 15:59N 16°07' E 108°13'0 0.0
2018-Jun-11 15:23N 16°07' E 108°13'0 0.0
2018-Jun-11 14:53N 16°07' E 108°13'0 0.0
2018-Jun-11 14:29N 16°07' E 108°13'0 0.0
2018-Jun-11 13:47N 16°07' E 108°13'0 0.0
2018-Jun-11 13:29N 16°07' E 108°13'0 0.0
2018-Jun-11 12:17N 16°07' E 108°13'0 0.0
2018-Jun-11 11:59N 16°07' E 108°13'0 0.0
2018-Jun-11 10:11N 16°07' E 108°13'0 0.0
2018-Jun-11 09:53N 16°07' E 108°13'0 0.0
2018-Jun-11 09:17N 16°07' E 108°13'0 0.0
2018-Jun-11 07:41N 16°07' E 108°13'0 0.0
2018-Jun-11 07:29N 16°07' E 108°13'0 0.0
2018-Jun-11 05:59N 16°07' E 108°13'0 0.0
2018-Jun-11 05:29N 16°07' E 108°13'0 0.0
2018-Jun-11 04:35N 16°07' E 108°13'0 0.0
2018-Jun-11 04:29N 16°07' E 108°13'0 0.0
2018-Jun-11 02:59N 16°07' E 108°13'0 0.0
2018-Jun-11 01:35N 16°07' E 108°13'0 0.0
2018-Jun-11 01:30N 16°07' E 108°13'0 0.2
2018-Jun-11 01:00N 16°07' E 108°13'1 3.0
2018-Jun-11 00:30N 16°08' E 108°12'2 4.2
2018-Jun-11 00:00N 16°10' E 108°13'9 5.5
2018-Jun-10 22:24N 16°11' E 108°22'3 6.2
2018-Jun-10 21:57N 16°10' E 108°24'4 8.8
2018-Jun-10 21:30N 16°08' E 108°28'  
2018-Jun-07 09:28N 01°26' E 104°30'611.5
2018-Jun-07 09:00N 01°22' E 104°26'811.4
2018-Jun-07 08:16N 01°17' E 104°20'312.0
2018-Jun-07 08:00N 01°17' E 104°16'611.9
2018-Jun-07 07:30N 01°16' E 104°10'612.0
2018-Jun-07 06:58N 01°15' E 104°04'510.9
2018-Jun-07 06:30N 01°15' E 103°59'4 7.9
2018-Jun-07 06:00N 01°16' E 103°55'1 1.1
2018-Jun-07 05:27N 01°16' E 103°55'0 0.0
2018-Jun-07 04:59N 01°16' E 103°55'0 0.1
2018-Jun-07 04:29N 01°16' E 103°55'0 0.0
2018-Jun-07 03:56N 01°16' E 103°55'0 0.0
2018-Jun-07 03:23N 01°16' E 103°55'0 0.0
2018-Jun-07 02:59N 01°16' E 103°55'0 0.0
2018-Jun-07 02:29N 01°16' E 103°55'0 0.0
2018-Jun-07 01:59N 01°16' E 103°55'0 0.0
2018-Jun-07 01:27N 01°16' E 103°55'0 0.0
2018-Jun-07 00:44N 01°16' E 103°55'0 0.0
2018-Jun-07 00:20N 01°16' E 103°55'0 0.0
2018-Jun-06 23:59N 01°16' E 103°55'0 0.0
2018-Jun-06 23:29N 01°16' E 103°55'0 0.0
2018-Jun-06 22:59N 01°16' E 103°55'0 0.0
2018-Jun-06 22:26N 01°16' E 103°55'0 0.0
2018-Jun-06 21:59N 01°16' E 103°55'0 0.1
2018-Jun-06 21:20N 01°16' E 103°55'0 0.0
2018-Jun-06 20:52N 01°16' E 103°55'0 0.2
2018-Jun-06 20:30N 01°16' E 103°55'0 0.0
2018-Jun-06 20:00N 01°16' E 103°55'0 0.1
2018-Jun-06 19:30N 01°16' E 103°55'0 0.0
2018-Jun-06 19:00N 01°16' E 103°55'0 0.0
2018-Jun-06 18:31N 01°16' E 103°55'0 0.1
2018-Jun-06 18:00N 01°16' E 103°55'1 1.1
2018-Jun-06 17:30N 01°16' E 103°55'2 3.8
2018-Jun-06 16:59N 01°15' E 103°57'3 5.6
2018-Jun-06 16:30N 01°13' E 103°55'510.0
2018-Jun-06 15:59N 01°11' E 103°51'5 9.3
2018-Jun-06 15:30N 01°09' E 103°47'510.2
2018-Jun-06 15:00N 01°05' E 103°43'5 9.8
2018-Jun-06 14:30N 01°03' E 103°38'510.3
2018-Jun-06 13:59N 01°06' E 103°34'510.3
2018-Jun-06 13:28N 01°09' E 103°29'5 9.6
2018-Jun-06 13:00N 01°11' E 103°25'610.4
2018-Jun-06 12:26N 01°15' E 103°21'510.5
2018-Jun-06 12:00N 01°18' E 103°18'  
Track history (hours):
 
Tides and Currents Weather Stations Pressure Air Temp Water Temp Dewpoint Dewpoint Depression Visibility Wind Speed Wind Dir Waves Ship Positions

Achilles Bulker

Last reported at 2018-Jun-12 14:02 UTC. Time now 2018-Jun-23 17:28 UTC.
Position N 16°07' E 108°27'.
Warning: this ship's position is 11 days out of date.

Length 177 m; draft 7.3 m.

Type: Cargo ship. MMSI: 355170000.

Date/timePositionNaut miles runAvg speedWind from/ knotsBaromVisibWave heightAir tempDewpointWater temp
2018-Jun-12 14:02N 16°07' E 108°27'113.2
2018-Jun-12 13:56N 16°08' E 108°26'1211.4
2018-Jun-12 12:52N 16°10' E 108°13'3 7.4
2018-Jun-12 12:29N 16°08' E 108°12'1 2.2
2018-Jun-12 12:00N 16°07' E 108°13'0 0.0
2018-Jun-12 11:29N 16°07' E 108°13'0 0.0
2018-Jun-12 10:47N 16°07' E 108°13'0 0.0
2018-Jun-12 10:29N 16°07' E 108°13'0 0.0
2018-Jun-12 09:53N 16°07' E 108°13'0 0.0
2018-Jun-12 09:29N 16°07' E 108°13'0 0.0
2018-Jun-12 08:53N 16°07' E 108°13'0 0.0
2018-Jun-12 08:29N 16°07' E 108°13'0 0.0
2018-Jun-12 07:59N 16°07' E 108°13'0 0.0
2018-Jun-12 07:17N 16°07' E 108°13'0 0.0
2018-Jun-12 06:47N 16°07' E 108°13'0 0.0
2018-Jun-12 05:59N 16°07' E 108°13'0 0.0
2018-Jun-12 05:23N 16°07' E 108°13'0 0.0
2018-Jun-12 04:59N 16°07' E 108°13'0 0.0
2018-Jun-12 04:29N 16°07' E 108°13'0 0.0
2018-Jun-12 03:59N 16°07' E 108°13'0 0.0
2018-Jun-12 03:29N 16°07' E 108°13'0 0.0
2018-Jun-12 02:59N 16°07' E 108°13'0 0.0
2018-Jun-12 02:29N 16°07' E 108°13'0 0.0
2018-Jun-12 01:59N 16°07' E 108°13'0 0.0
2018-Jun-12 01:29N 16°07' E 108°13'0 0.0
2018-Jun-12 00:59N 16°07' E 108°13'0 0.0
2018-Jun-12 00:11N 16°07' E 108°13'0 0.0
2018-Jun-11 23:59N 16°07' E 108°13'0 0.0
2018-Jun-11 23:29N 16°07' E 108°13'0 0.0
2018-Jun-11 22:53N 16°07' E 108°13'0 0.0
2018-Jun-11 22:29N 16°07' E 108°13'0 0.0
2018-Jun-11 21:59N 16°07' E 108°13'0 0.0
2018-Jun-11 21:29N 16°07' E 108°13'0 0.0
2018-Jun-11 20:53N 16°07' E 108°13'0 0.0
2018-Jun-11 20:29N 16°07' E 108°13'0 0.0
2018-Jun-11 19:59N 16°07' E 108°13'0 0.0
2018-Jun-11 19:29N 16°07' E 108°13'0 0.0
2018-Jun-11 18:59N 16°07' E 108°13'0 0.0
2018-Jun-11 18:29N 16°07' E 108°13'0 0.0
2018-Jun-11 17:59N 16°07' E 108°13'0 0.0
2018-Jun-11 17:29N 16°07' E 108°13'0 0.0
2018-Jun-11 16:59N 16°07' E 108°13'0 0.0
2018-Jun-11 16:29N 16°07' E 108°13'0 0.0
2018-Jun-11 15:59N 16°07' E 108°13'0 0.0
2018-Jun-11 15:23N 16°07' E 108°13'0 0.0
2018-Jun-11 14:53N 16°07' E 108°13'0 0.0
2018-Jun-11 14:29N 16°07' E 108°13'0 0.0
2018-Jun-11 13:47N 16°07' E 108°13'0 0.0
2018-Jun-11 13:29N 16°07' E 108°13'0 0.0
2018-Jun-11 12:17N 16°07' E 108°13'0 0.0
2018-Jun-11 11:59N 16°07' E 108°13'0 0.0
2018-Jun-11 10:11N 16°07' E 108°13'0 0.0
2018-Jun-11 09:53N 16°07' E 108°13'0 0.0
2018-Jun-11 09:17N 16°07' E 108°13'0 0.0
2018-Jun-11 07:41N 16°07' E 108°13'0 0.0
2018-Jun-11 07:29N 16°07' E 108°13'0 0.0
2018-Jun-11 05:59N 16°07' E 108°13'0 0.0
2018-Jun-11 05:29N 16°07' E 108°13'0 0.0
2018-Jun-11 04:35N 16°07' E 108°13'0 0.0
2018-Jun-11 04:29N 16°07' E 108°13'0 0.0
2018-Jun-11 02:59N 16°07' E 108°13'0 0.0
2018-Jun-11 01:35N 16°07' E 108°13'0 0.0
2018-Jun-11 01:30N 16°07' E 108°13'0 0.2
2018-Jun-11 01:00N 16°07' E 108°13'1 3.0
2018-Jun-11 00:30N 16°08' E 108°12'2 4.2
2018-Jun-11 00:00N 16°10' E 108°13'9 5.5
2018-Jun-10 22:24N 16°11' E 108°22'3 6.2
2018-Jun-10 21:57N 16°10' E 108°24'4 8.8
2018-Jun-10 21:30N 16°08' E 108°28'  
2018-Jun-07 09:28N 01°26' E 104°30'611.5
2018-Jun-07 09:00N 01°22' E 104°26'811.4
2018-Jun-07 08:16N 01°17' E 104°20'312.0
2018-Jun-07 08:00N 01°17' E 104°16'611.9
2018-Jun-07 07:30N 01°16' E 104°10'612.0
2018-Jun-07 06:58N 01°15' E 104°04'510.9
2018-Jun-07 06:30N 01°15' E 103°59'4 7.9
2018-Jun-07 06:00N 01°16' E 103°55'1 1.1
2018-Jun-07 05:27N 01°16' E 103°55'0 0.0
2018-Jun-07 04:59N 01°16' E 103°55'0 0.1
2018-Jun-07 04:29N 01°16' E 103°55'0 0.0
2018-Jun-07 03:56N 01°16' E 103°55'0 0.0
2018-Jun-07 03:23N 01°16' E 103°55'0 0.0
2018-Jun-07 02:59N 01°16' E 103°55'0 0.0
2018-Jun-07 02:29N 01°16' E 103°55'0 0.0
2018-Jun-07 01:59N 01°16' E 103°55'0 0.0
2018-Jun-07 01:27N 01°16' E 103°55'0 0.0
2018-Jun-07 00:44N 01°16' E 103°55'0 0.0
2018-Jun-07 00:20N 01°16' E 103°55'0 0.0
2018-Jun-06 23:59N 01°16' E 103°55'0 0.0
2018-Jun-06 23:29N 01°16' E 103°55'0 0.0
2018-Jun-06 22:59N 01°16' E 103°55'0 0.0
2018-Jun-06 22:26N 01°16' E 103°55'0 0.0
2018-Jun-06 21:59N 01°16' E 103°55'0 0.1
2018-Jun-06 21:20N 01°16' E 103°55'0 0.0
2018-Jun-06 20:52N 01°16' E 103°55'0 0.2
2018-Jun-06 20:30N 01°16' E 103°55'0 0.0
2018-Jun-06 20:00N 01°16' E 103°55'0 0.1
2018-Jun-06 19:30N 01°16' E 103°55'0 0.0
2018-Jun-06 19:00N 01°16' E 103°55'0 0.0
2018-Jun-06 18:31N 01°16' E 103°55'0 0.1
2018-Jun-06 18:00N 01°16' E 103°55'1 1.1
2018-Jun-06 17:30N 01°16' E 103°55'2 3.8
2018-Jun-06 16:59N 01°15' E 103°57'3 5.6
2018-Jun-06 16:30N 01°13' E 103°55'510.0
2018-Jun-06 15:59N 01°11' E 103°51'5 9.3
2018-Jun-06 15:30N 01°09' E 103°47'510.2
2018-Jun-06 15:00N 01°05' E 103°43'5 9.8
2018-Jun-06 14:30N 01°03' E 103°38'510.3
2018-Jun-06 13:59N 01°06' E 103°34'510.3
2018-Jun-06 13:28N 01°09' E 103°29'5 9.6
2018-Jun-06 13:00N 01°11' E 103°25'610.4
2018-Jun-06 12:26N 01°15' E 103°21'510.5
2018-Jun-06 12:00N 01°18' E 103°18'  

Dump ship's entire track history